Time;durP1;ratioP1;P1;durP2;ratioP2;P2;SDS_P1;SDS_P2;PMS_P1;PMS_P2;Temp;Humidity;BMP_temperature;BMP_pressure;BME280_temperature;BME280_humidity;BME280_pressure;Samples;Min_cycle;Max_cycle;Signal;HPM_P1;HPM_P2
2023/04/19 00:02:27;;;;;;;5.93;4.63;;;;;;;10.88;64.60;100682.50;5008168;28;20287;-63
2023/04/19 00:04:55;;;;;;;5.67;4.60;;;;;;;10.83;64.53;100677.34;5010916;28;20581;-62
2023/04/19 00:07:24;;;;;;;7.00;5.10;;;;;;;10.78;64.81;100675.63;5010851;28;20207;-62
2023/04/19 00:09:51;;;;;;;5.20;4.70;;;;;;;10.73;65.17;100677.38;5012079;28;20203;-62
2023/04/19 00:12:19;;;;;;;6.53;5.17;;;;;;;10.71;65.13;100673.94;5005392;28;20632;-62
2023/04/19 00:14:47;;;;;;;8.20;5.13;;;;;;;10.67;65.03;100669.66;5010792;28;20234;-62
2023/04/19 00:17:15;;;;;;;6.27;4.63;;;;;;;10.64;65.47;100673.97;5009238;28;20199;-62
2023/04/19 00:19:44;;;;;;;5.90;4.77;;;;;;;10.55;64.83;100667.97;5010597;28;20637;-61
2023/04/19 00:22:12;;;;;;;4.90;4.40;;;;;;;10.48;65.13;100677.41;5008064;28;20235;-62
2023/04/19 00:24:40;;;;;;;6.73;4.33;;;;;;;10.43;64.63;100665.41;5007999;28;20207;-62
2023/04/19 00:27:08;;;;;;;4.17;3.70;;;;;;;10.40;65.19;100666.25;5009915;28;20210;-62
2023/04/19 00:29:36;;;;;;;5.17;4.00;;;;;;;10.39;65.37;100667.13;5002280;28;20204;-61
2023/04/19 00:32:04;;;;;;;6.07;4.50;;;;;;;10.35;65.69;100660.25;5011100;28;20211;-61
2023/04/19 00:34:32;;;;;;;5.43;4.90;;;;;;;10.30;65.65;100667.13;5011057;28;20215;-62
2023/04/19 00:37:03;;;;;;;5.30;4.37;;;;;;;10.26;66.18;100662.81;5006145;28;20274;-63
2023/04/19 00:39:31;;;;;;;4.10;3.70;;;;;;;10.23;66.02;100655.91;5008805;28;20238;-61
2023/04/19 00:42:00;;;;;;;4.77;4.20;;;;;;;10.22;67.30;100659.38;5009828;28;20203;-60
2023/04/19 00:44:28;;;;;;;5.17;4.50;;;;;;;10.09;68.78;100653.38;5002796;28;20253;-63
2023/04/19 00:46:56;;;;;;;4.33;3.93;;;;;;;9.96;69.42;100656.78;5010198;28;20616;-65
2023/04/19 00:49:25;;;;;;;6.10;3.90;;;;;;;9.91;69.79;100664.50;5008708;28;20265;-65
2023/04/19 00:51:54;;;;;;;5.30;4.30;;;;;;;9.91;70.97;100655.94;5009236;28;20215;-60
2023/04/19 00:54:23;;;;;;;5.53;3.93;;;;;;;9.87;70.84;100646.50;5007596;28;20563;-62
2023/04/19 00:56:51;;;;;;;6.03;4.17;;;;;;;9.81;72.61;100651.63;5010881;28;20214;-63
2023/04/19 00:59:19;;;;;;;4.63;3.90;;;;;;;9.78;72.83;100646.47;5008123;28;20235;-66
2023/04/19 01:01:47;;;;;;;6.30;4.10;;;;;;;9.77;73.27;100642.19;5008939;28;20253;-64
2023/04/19 01:04:16;;;;;;;5.67;4.43;;;;;;;9.75;73.61;100641.31;5007346;28;20203;-62
2023/04/19 01:06:44;;;;;;;5.97;4.53;;;;;;;9.75;73.47;100631.00;5010907;28;20192;-62
2023/04/19 01:09:12;;;;;;;4.97;4.30;;;;;;;9.74;73.31;100624.16;5008267;28;20203;-62
2023/04/19 01:11:41;;;;;;;6.43;4.50;;;;;;;9.73;74.16;100625.03;5008903;28;20254;-60
2023/04/19 01:14:10;;;;;;;6.87;5.20;;;;;;;9.69;74.74;100624.16;5010987;28;20215;-63
2023/04/19 01:16:38;;;;;;;5.70;4.93;;;;;;;9.65;75.18;100619.88;5007900;28;20238;-61
2023/04/19 01:19:06;;;;;;;7.23;6.07;;;;;;;9.58;75.24;100619.00;5006858;28;20203;-62
2023/04/19 01:21:37;;;;;;;8.30;6.87;;;;;;;9.51;75.17;100614.69;5006201;28;20204;-64
2023/04/19 01:24:06;;;;;;;7.33;6.30;;;;;;;9.46;75.55;100613.81;5008923;28;20654;-62
2023/04/19 01:26:34;;;;;;;8.50;6.83;;;;;;;9.38;75.51;100608.66;5009532;28;20475;-62
2023/04/19 01:29:02;;;;;;;7.43;6.30;;;;;;;9.31;75.79;100608.63;4998893;28;20702;-63
2023/04/19 01:31:30;;;;;;;7.53;5.77;;;;;;;9.32;75.55;100615.53;5008831;28;20206;-62
2023/04/19 01:33:58;;;;;;;6.37;5.77;;;;;;;9.35;75.93;100611.25;5004738;28;20239;-62
2023/04/19 01:36:26;;;;;;;6.67;5.30;;;;;;;9.40;75.59;100613.81;5008810;28;20666;-63
2023/04/19 01:38:54;;;;;;;7.63;6.13;;;;;;;9.40;75.33;100608.69;5003552;28;20200;-61
2023/04/19 01:41:25;;;;;;;7.97;5.90;;;;;;;9.39;74.93;100602.69;5010922;28;20226;-65
2023/04/19 01:43:53;;;;;;;6.40;5.80;;;;;;;9.42;75.71;100606.94;5008681;28;20426;-63
2023/04/19 01:46:21;;;;;;;5.53;5.03;;;;;;;9.42;75.74;100607.81;5008498;28;20211;-63
2023/04/19 01:48:49;;;;;;;6.20;5.50;;;;;;;9.39;74.95;100610.38;5008544;28;20214;-62
2023/04/19 01:51:17;;;;;;;6.57;5.87;;;;;;;9.36;75.56;100601.81;5006856;28;20207;-62
2023/04/19 01:53:45;;;;;;;7.43;6.13;;;;;;;9.29;74.88;100595.78;5008249;28;20251;-62
2023/04/19 01:56:13;;;;;;;6.60;5.37;;;;;;;9.21;75.99;100596.63;5008059;28;20225;-63
2023/04/19 01:58:42;;;;;;;6.33;5.53;;;;;;;9.20;76.23;100600.88;5009188;28;20258;-62
2023/04/19 02:01:11;;;;;;;6.57;5.90;;;;;;;9.19;75.69;100596.59;5009373;28;20203;-64
2023/04/19 02:03:39;;;;;;;7.93;5.73;;;;;;;9.22;75.91;100606.06;5009031;28;20207;-62
2023/04/19 02:06:10;;;;;;;6.63;5.97;;;;;;;9.23;76.40;100602.63;5008881;28;20234;-64
2023/04/19 02:08:38;;;;;;;6.87;5.37;;;;;;;9.22;75.88;100588.06;5008525;28;20210;-62
2023/04/19 02:11:07;;;;;;;6.43;5.83;;;;;;;9.24;76.49;100592.31;5009371;28;20249;-62
2023/04/19 02:13:36;;;;;;;5.97;5.27;;;;;;;9.23;75.96;100592.34;5008246;28;20243;-63
2023/04/19 02:16:06;;;;;;;5.63;5.13;;;;;;;9.19;76.68;100588.91;5005657;28;20249;-64
2023/04/19 02:18:37;;;;;;;6.47;5.67;;;;;;;9.17;76.18;100591.47;5009022;28;20203;-62
2023/04/19 02:21:06;;;;;;;6.67;5.17;;;;;;;9.17;76.50;100586.34;5009089;28;20726;-63
2023/04/19 02:23:34;;;;;;;5.80;5.20;;;;;;;9.13;76.62;100589.75;5009718;28;20286;-61
2023/04/19 02:26:02;;;;;;;6.50;5.00;;;;;;;9.10;77.29;100579.47;5006416;28;20208;-62
2023/04/19 02:28:30;;;;;;;5.50;4.93;;;;;;;9.06;77.56;100577.72;5009617;28;20235;-62
2023/04/19 02:30:58;;;;;;;6.93;5.00;;;;;;;9.11;77.26;100586.31;5011371;28;20203;-63
2023/04/19 02:33:28;;;;;;;5.87;5.27;;;;;;;9.11;76.97;100581.16;5014056;28;20243;-62
2023/04/19 02:35:55;;;;;;;5.70;5.13;;;;;;;9.10;76.52;100579.47;5011765;28;20238;-63
2023/04/19 02:38:23;;;;;;;6.90;5.63;;;;;;;9.11;77.83;100570.88;5012412;28;20214;-63
2023/04/19 02:40:51;;;;;;;7.23;5.40;;;;;;;9.15;76.96;100570.03;5012560;28;20265;-62
2023/04/19 02:43:19;;;;;;;6.13;5.40;;;;;;;9.17;76.95;100573.47;5010733;28;20261;-62
2023/04/19 02:45:47;;;;;;;6.80;5.67;;;;;;;9.14;78.08;100570.91;5009449;28;20662;-64
2023/04/19 02:48:15;;;;;;;5.43;4.93;;;;;;;9.17;78.32;100568.34;5010840;28;20241;-64
2023/04/19 02:50:44;;;;;;;5.80;5.20;;;;;;;9.19;77.54;100571.75;5012432;28;20231;-63
2023/04/19 02:53:12;;;;;;;5.73;5.13;;;;;;;9.20;78.60;100564.91;5009584;28;20234;-63
2023/04/19 02:55:40;;;;;;;6.30;5.20;;;;;;;9.19;77.39;100555.47;5011213;28;20257;-61
2023/04/19 02:58:08;;;;;;;4.80;4.30;;;;;;;9.11;77.74;100554.59;5012145;28;20230;-63
2023/04/19 03:00:36;;;;;;;5.30;4.80;;;;;;;9.07;76.99;100558.03;5010709;28;20219;-63
2023/04/19 03:03:04;;;;;;;7.87;4.93;;;;;;;9.04;77.83;100553.72;5009473;28;20203;-63
2023/04/19 03:05:32;;;;;;;5.97;5.37;;;;;;;9.07;77.62;100553.72;5008753;28;20208;-63
2023/04/19 03:08:01;;;;;;;22.87;5.53;;;;;;;9.07;78.22;100545.16;5011614;28;20266;-63
2023/04/19 03:10:29;;;;;;;5.90;5.30;;;;;;;9.03;77.10;100552.00;5012017;28;20210;-62
2023/04/19 03:12:57;;;;;;;5.57;5.03;;;;;;;8.98;78.44;100540.00;5012088;28;20227;-62
2023/04/19 03:15:25;;;;;;;6.60;5.90;;;;;;;8.98;77.94;100538.28;5008026;28;20206;-62
2023/04/19 03:17:53;;;;;;;6.30;5.70;;;;;;;8.99;78.08;100539.16;5011553;28;20638;-62
2023/04/19 03:20:21;;;;;;;6.63;5.33;;;;;;;8.96;77.26;100537.44;5007768;28;20234;-62
2023/04/19 03:22:49;;;;;;;7.03;6.27;;;;;;;8.94;76.85;100536.56;5013418;28;20674;-64
2023/04/19 03:25:18;;;;;;;6.17;5.57;;;;;;;8.91;77.59;100531.41;5010312;28;20598;-62
2023/04/19 03:27:46;;;;;;;5.90;5.30;;;;;;;8.86;77.61;100533.09;5006772;28;20672;-61
2023/04/19 03:30:15;;;;;;;6.17;5.57;;;;;;;8.80;77.99;100531.38;5010871;28;20211;-63
2023/04/19 03:32:42;;;;;;;6.50;5.87;;;;;;;8.81;77.47;100527.09;5012358;28;20270;-63
2023/04/19 03:35:10;;;;;;;6.43;5.80;;;;;;;8.79;77.77;100531.38;5004749;28;20265;-63
2023/04/19 03:37:38;;;;;;;6.53;5.40;;;;;;;8.75;78.22;100522.78;5007635;28;20728;-67
2023/04/19 03:40:07;;;;;;;8.10;5.90;;;;;;;8.79;78.56;100513.38;5003430;28;20195;-61
2023/04/19 03:42:36;;;;;;;7.40;5.80;;;;;;;8.78;77.79;100515.09;5009400;28;20218;-63
2023/04/19 03:45:05;;;;;;;7.63;6.13;;;;;;;8.82;77.64;100515.97;5009455;28;20277;-64
2023/04/19 03:47:33;;;;;;;9.20;6.03;;;;;;;8.81;77.66;100514.25;5011772;28;20219;-63
2023/04/19 03:50:01;;;;;;;6.33;5.73;;;;;;;8.81;78.21;100509.13;5009406;28;20210;-64
2023/04/19 03:52:29;;;;;;;6.77;6.03;;;;;;;8.84;77.77;100507.41;5008495;28;20291;-61
2023/04/19 03:54:57;;;;;;;8.43;6.23;;;;;;;8.80;78.06;100508.25;5008784;28;20310;-63
2023/04/19 03:57:25;;;;;;;7.33;6.17;;;;;;;8.77;78.44;100502.25;5008024;28;20654;-63
2023/04/19 03:59:54;;;;;;;7.27;5.53;;;;;;;8.77;78.35;100502.25;5010784;28;20330;-62
2023/04/19 04:02:22;;;;;;;7.70;6.90;;;;;;;8.73;78.09;100506.53;5010051;28;20607;-62
2023/04/19 04:04:53;;;;;;;7.77;6.60;;;;;;;8.75;78.89;100498.81;5010380;28;20203;-63
2023/04/19 04:07:22;;;;;;;8.43;6.37;;;;;;;8.77;78.53;100492.84;5011778;28;20290;-64
2023/04/19 04:09:50;;;;;;;6.53;5.80;;;;;;;8.79;78.57;100495.41;5006689;28;20211;-64
2023/04/19 04:12:18;;;;;;;7.33;6.03;;;;;;;8.78;78.25;100491.97;5006816;28;20218;-63
2023/04/19 04:14:46;;;;;;;8.20;6.83;;;;;;;8.82;77.52;100493.69;5010543;28;20223;-63
2023/04/19 04:17:15;;;;;;;6.63;6.03;;;;;;;8.80;77.57;100490.28;5008636;28;20214;-63
2023/04/19 04:19:43;;;;;;;6.37;5.70;;;;;;;8.82;77.08;100493.69;5004921;28;20663;-62
2023/04/19 04:22:11;;;;;;;6.50;5.27;;;;;;;8.80;77.78;100497.09;5009794;28;20196;-62
2023/04/19 04:24:40;;;;;;;6.70;6.00;;;;;;;8.76;77.56;100495.38;5011569;28;20239;-64
2023/04/19 04:27:08;;;;;;;6.60;5.57;;;;;;;8.73;78.72;100495.38;5007667;28;20203;-64
2023/04/19 04:29:37;;;;;;;8.17;5.17;;;;;;;8.72;78.52;100494.50;5000741;28;20298;-62
2023/04/19 04:32:09;;;;;;;5.77;5.27;;;;;;;8.66;77.95;100489.38;5006497;28;20208;-62
2023/04/19 04:34:41;;;;;;;5.33;4.83;;;;;;;8.61;77.94;100489.34;5011075;28;20269;-66
2023/04/19 04:37:10;;;;;;;5.17;4.73;;;;;;;8.56;78.21;100478.19;5010934;28;20211;-63
2023/04/19 04:39:38;;;;;;;5.97;5.07;;;;;;;8.58;78.28;100481.66;5006014;28;20214;-66
2023/04/19 04:42:07;;;;;;;6.60;5.53;;;;;;;8.59;78.38;100479.94;5009829;28;20214;-62
2023/04/19 04:44:36;;;;;;;5.73;5.23;;;;;;;8.59;78.44;100488.50;5008155;28;20203;-62
2023/04/19 04:47:04;;;;;;;5.87;5.27;;;;;;;8.57;79.06;100485.03;5001155;28;20277;-63
2023/04/19 04:49:31;;;;;;;5.60;5.00;;;;;;;8.59;79.14;100483.34;5008179;28;20219;-64
2023/04/19 04:52:01;;;;;;;7.03;5.80;;;;;;;8.57;79.27;100479.06;5007583;28;20211;-62
2023/04/19 04:54:28;;;;;;;6.10;5.50;;;;;;;8.58;79.68;100475.63;5010034;28;20365;-60
2023/04/19 04:56:56;;;;;;;6.73;6.00;;;;;;;8.56;79.00;100478.19;5007068;28;20207;-60
2023/04/19 04:59:24;;;;;;;8.03;5.83;;;;;;;8.55;79.43;100478.22;5007902;28;20203;-62
2023/04/19 05:01:52;;;;;;;6.83;6.20;;;;;;;8.53;79.08;100475.63;5003908;28;20287;-62
2023/04/19 05:04:20;;;;;;;8.53;7.03;;;;;;;8.51;79.29;100474.78;5010151;28;20242;-64
2023/04/19 05:06:48;;;;;;;8.10;7.30;;;;;;;8.51;79.45;100471.34;5003909;28;20211;-62
2023/04/19 05:09:18;;;;;;;7.97;7.13;;;;;;;8.50;79.27;100465.31;5011229;28;20208;-60
2023/04/19 05:11:46;;;;;;;9.27;8.37;;;;;;;8.53;79.80;100470.47;5008539;28;20634;-61
2023/04/19 05:14:14;;;;;;;10.53;9.43;;;;;;;8.52;79.88;100468.78;5004081;28;20259;-60
2023/04/19 05:16:42;;;;;;;10.67;9.57;;;;;;;8.54;79.80;100476.47;5002138;28;20658;-60
2023/04/19 05:19:10;;;;;;;9.20;8.30;;;;;;;8.52;79.99;100467.91;5010256;28;20215;-62
2023/04/19 05:21:38;;;;;;;8.63;7.73;;;;;;;8.49;80.49;100461.06;5008736;28;20195;-60
2023/04/19 05:24:08;;;;;;;8.70;7.87;;;;;;;8.51;80.44;100464.50;5001421;28;20243;-62
2023/04/19 05:26:38;;;;;;;7.23;6.53;;;;;;;8.52;79.95;100458.50;5006319;28;20239;-61
2023/04/19 05:29:05;;;;;;;8.23;7.07;;;;;;;8.54;80.15;100459.34;5004749;28;20207;-61
2023/04/19 05:31:33;;;;;;;7.90;6.80;;;;;;;8.54;80.03;100461.91;5005391;28;20687;-61
2023/04/19 05:34:02;;;;;;;6.90;6.30;;;;;;;8.56;79.19;100472.22;4995224;28;20677;-62
2023/04/19 05:36:31;;;;;;;7.60;6.67;;;;;;;8.55;79.72;100466.22;5003211;28;20214;-61
2023/04/19 05:38:58;;;;;;;8.40;6.60;;;;;;;8.53;79.44;100467.06;5005869;28;20207;-60
2023/04/19 05:41:26;;;;;;;9.07;6.83;;;;;;;8.45;79.07;100459.31;5007495;28;20215;-61
2023/04/19 05:43:56;;;;;;;7.23;6.53;;;;;;;8.43;80.15;100459.34;5004015;28;20939;-61
2023/04/19 05:46:24;;;;;;;7.33;6.60;;;;;;;8.42;79.72;100454.16;5001833;28;20548;-61
2023/04/19 05:48:54;;;;;;;8.90;7.77;;;;;;;8.35;80.95;100454.97;5004637;28;20633;-63
2023/04/19 05:51:23;;;;;;;9.30;7.37;;;;;;;8.35;80.96;100462.66;5009736;28;20213;-62
2023/04/19 05:53:53;;;;;;;8.70;6.90;;;;;;;8.33;80.69;100456.69;5004612;28;20681;-61
2023/04/19 05:56:23;;;;;;;7.10;6.40;;;;;;;8.32;81.03;100458.41;5005881;28;20338;-60
2023/04/19 05:58:51;;;;;;;7.93;6.87;;;;;;;8.34;80.50;100451.53;5007667;28;20211;-61
2023/04/19 06:01:21;;;;;;;10.20;6.67;;;;;;;8.37;80.72;100455.84;5001215;28;20213;-61
2023/04/19 06:03:51;;;;;;;6.93;6.23;;;;;;;8.40;80.44;100455.91;5003234;28;20196;-62
2023/04/19 06:06:21;;;;;;;8.47;7.57;;;;;;;8.40;80.91;100461.88;5012656;28;20560;-62
2023/04/19 06:08:49;;;;;;;11.20;7.57;;;;;;;8.41;80.70;100444.75;5013232;28;20204;-60
2023/04/19 06:11:21;;;;;;;9.43;8.53;;;;;;;8.36;80.59;100443.88;5014181;28;20265;-63
2023/04/19 06:14:01;;;;;;;11.80;10.10;;;;;;;8.41;79.77;100449.91;5012488;28;20730;-65
2023/04/19 06:16:30;;;;;;;12.07;10.60;;;;;;;8.43;80.03;100448.19;5013941;28;20219;-61
2023/04/19 06:18:59;;;;;;;14.17;11.40;;;;;;;8.46;80.12;100445.63;5011712;28;20261;-63
2023/04/19 06:21:27;;;;;;;12.20;10.97;;;;;;;8.49;80.20;100439.66;5011036;28;20199;-62
2023/04/19 06:23:54;;;;;;;13.43;10.97;;;;;;;8.55;79.17;100445.69;5011551;28;20296;-63
2023/04/19 06:26:22;;;;;;;13.97;11.80;;;;;;;8.60;79.67;100443.97;5007437;28;20207;-62
2023/04/19 06:28:50;;;;;;;13.07;11.67;;;;;;;8.67;79.33;100440.56;5009111;28;20249;-62
2023/04/19 06:31:18;;;;;;;16.20;14.50;;;;;;;8.68;79.13;100436.28;5013107;28;20199;-63
2023/04/19 06:33:48;;;;;;;19.20;14.40;;;;;;;8.69;79.04;100433.72;5009956;28;20199;-63
2023/04/19 06:36:16;;;;;;;16.17;14.47;;;;;;;8.69;78.74;100438.88;5010905;28;20215;-65
2023/04/19 06:38:45;;;;;;;18.57;15.43;;;;;;;8.70;78.93;100443.16;5012752;28;20210;-62
2023/04/19 06:41:13;;;;;;;16.67;14.87;;;;;;;8.71;78.85;100439.72;5014294;28;20565;-67
2023/04/19 06:43:41;;;;;;;18.00;15.83;;;;;;;8.77;78.91;100432.88;5013161;28;20665;-62
2023/04/19 06:46:10;;;;;;;19.20;16.00;;;;;;;8.82;78.21;100438.88;5009735;28;20659;-61
2023/04/19 06:48:38;;;;;;;15.20;13.57;;;;;;;8.78;78.86;100438.03;5006767;28;20207;-61
2023/04/19 06:51:07;;;;;;;14.83;12.97;;;;;;;8.90;79.07;100437.19;5004551;28;20207;-61
2023/04/19 06:53:36;;;;;;;15.17;13.00;;;;;;;9.00;78.64;100441.47;5009331;28;20262;-62
2023/04/19 06:56:05;;;;;;;16.60;12.87;;;;;;;9.15;79.20;100443.22;5007452;28;20300;-63
2023/04/19 06:58:33;;;;;;;14.27;11.97;;;;;;;9.30;78.29;100442.34;5007801;28;20249;-63
2023/04/19 07:01:03;;;;;;;12.40;11.07;;;;;;;9.38;77.95;100436.34;5010559;28;20438;-63
2023/04/19 07:03:31;;;;;;;18.47;11.70;;;;;;;9.54;77.65;100447.50;5009923;28;20207;-62
2023/04/19 07:06:00;;;;;;;14.30;12.07;;;;;;;9.67;78.32;100450.91;5012900;28;20199;-63
2023/04/19 07:08:29;;;;;;;11.50;10.27;;;;;;;9.77;77.39;100439.75;5008294;28;20215;-60
2023/04/19 07:11:15;;;;;;;11.23;10.03;;;;;;;9.79;76.35;100458.59;5007553;28;20616;-61
2023/04/19 07:13:43;;;;;;;12.47;10.30;;;;;;;9.75;76.70;100444.03;5001753;28;20219;-61
2023/04/19 07:16:12;;;;;;;11.23;9.77;;;;;;;9.75;75.85;100446.59;5002904;28;20222;-59
2023/04/19 07:18:40;;;;;;;10.20;9.10;;;;;;;9.73;75.81;100452.63;5012929;28;20246;-60
2023/04/19 07:21:08;;;;;;;10.50;9.40;;;;;;;9.64;76.36;100446.59;5008787;28;20195;-61
2023/04/19 07:23:37;;;;;;;10.53;9.43;;;;;;;9.57;76.78;100444.94;5006858;28;20646;-61
2023/04/19 07:26:05;;;;;;;11.07;9.17;;;;;;;9.49;76.14;100446.63;5011188;28;20233;-59
2023/04/19 07:28:33;;;;;;;10.23;8.50;;;;;;;9.40;76.38;100436.34;5006325;28;20195;-59
2023/04/19 07:31:01;;;;;;;9.53;7.93;;;;;;;9.36;76.14;100438.06;5005489;28;20203;-60
2023/04/19 07:33:29;;;;;;;11.37;8.43;;;;;;;9.36;76.65;100440.66;5005040;28;20219;-60
2023/04/19 07:35:57;;;;;;;9.73;8.33;;;;;;;9.38;76.85;100443.19;5008486;28;20246;-61
2023/04/19 07:38:25;;;;;;;9.80;8.80;;;;;;;9.36;76.13;100442.38;5007054;28;20239;-60
2023/04/19 07:40:55;;;;;;;9.67;8.47;;;;;;;9.27;76.87;100448.34;5003461;28;20210;-59
2023/04/19 07:43:23;;;;;;;9.93;8.70;;;;;;;9.19;77.28;100443.19;5003997;28;20732;-60
2023/04/19 07:45:51;;;;;;;10.63;8.90;;;;;;;9.18;77.24;100448.34;5009031;28;20199;-61
2023/04/19 07:48:19;;;;;;;9.63;8.63;;;;;;;9.14;77.47;100450.06;5010667;28;20740;-61
2023/04/19 07:50:47;;;;;;;9.47;8.47;;;;;;;9.11;77.59;100447.50;5006868;28;20628;-62
2023/04/19 07:53:15;;;;;;;11.73;8.87;;;;;;;9.07;77.83;100445.78;5004738;28;20211;-63
2023/04/19 07:55:43;;;;;;;10.03;8.87;;;;;;;9.09;78.23;100448.34;5008039;28;20443;-64
2023/04/19 07:58:12;;;;;;;9.67;8.70;;;;;;;9.11;78.05;100450.06;5011056;28;20253;-62
2023/04/19 08:00:40;;;;;;;8.93;7.87;;;;;;;9.06;77.11;100451.78;5009807;28;20238;-63
2023/04/19 08:03:08;;;;;;;8.53;7.67;;;;;;;9.07;76.18;100450.06;5010560;28;20205;-62
2023/04/19 08:05:36;;;;;;;8.40;7.60;;;;;;;9.07;76.36;100444.91;5009201;28;20211;-61
2023/04/19 08:08:05;;;;;;;9.17;8.00;;;;;;;9.12;75.74;100449.19;5010681;28;20586;-61
2023/04/19 08:10:34;;;;;;;9.43;7.47;;;;;;;9.15;75.19;100446.63;5011355;28;20590;-62
2023/04/19 08:13:02;;;;;;;10.27;7.93;;;;;;;9.24;76.21;100447.47;5012695;28;20226;-62
2023/04/19 08:15:35;;;;;;;8.07;7.27;;;;;;;9.31;75.31;100446.63;5010006;28;20670;-62
2023/04/19 08:18:06;;;;;;;8.93;7.57;;;;;;;9.31;75.06;100441.50;5008920;28;20278;-63
2023/04/19 08:20:35;;;;;;;8.40;7.43;;;;;;;9.37;74.81;100446.63;5009557;28;20265;-61
2023/04/19 08:23:05;;;;;;;7.73;6.93;;;;;;;9.42;74.60;100440.63;5003838;28;20239;-61
2023/04/19 08:25:48;;;;;;;7.87;7.03;;;;;;;9.47;74.06;100440.66;5006876;28;20569;-60
2023/04/19 08:28:16;;;;;;;8.93;7.30;;;;;;;9.53;74.25;100442.34;4998760;28;20234;-64
2023/04/19 08:30:46;;;;;;;8.30;7.10;;;;;;;9.60;74.13;100447.47;5011914;28;20211;-61
2023/04/19 08:33:13;;;;;;;8.00;7.17;;;;;;;9.74;73.93;100444.03;5007459;28;20210;-60
2023/04/19 08:35:44;;;;;;;9.13;7.20;;;;;;;9.84;73.66;100445.75;5006306;28;20223;-60
2023/04/19 08:38:12;;;;;;;8.47;7.57;;;;;;;9.89;72.54;100441.41;5005961;28;20682;-60
2023/04/19 08:40:46;;;;;;;7.53;5.93;;;;;;;9.87;72.31;100445.72;5009330;28;20268;-59
2023/04/19 08:43:17;;;;;;;10.50;7.20;;;;;;;9.81;72.34;100450.88;5012054;28;20202;-62
2023/04/19 08:45:48;;;;;;;7.63;6.83;;;;;;;9.80;72.98;100449.19;5007848;28;20210;-61
2023/04/19 08:48:17;;;;;;;7.57;6.33;;;;;;;9.84;73.24;100450.88;5006073;28;20345;-60
2023/04/19 08:50:47;;;;;;;7.50;6.50;;;;;;;9.86;72.74;100444.00;5009066;28;20211;-59
2023/04/19 08:53:31;;;;;;;7.13;6.43;;;;;;;9.99;72.45;100445.69;5006865;28;20207;-62
2023/04/19 08:55:59;;;;;;;8.00;6.60;;;;;;;10.05;72.32;100445.69;5007522;28;20211;-63
2023/04/19 08:58:32;;;;;;;10.57;6.87;;;;;;;10.06;71.74;100447.38;5009221;28;20203;-60
2023/04/19 09:01:21;;;;;;;8.07;6.47;;;;;;;10.03;71.48;100444.81;5005364;28;20212;-61
2023/04/19 09:04:05;;;;;;;7.00;6.30;;;;;;;10.03;71.99;100447.41;5008580;28;20206;-63
2023/04/19 09:06:53;;;;;;;7.47;6.10;;;;;;;10.05;71.32;100443.13;5003512;28;20581;-61
2023/04/19 09:09:23;;;;;;;8.90;6.87;;;;;;;10.08;71.78;100449.94;5003686;28;20227;-61
2023/04/19 09:11:53;;;;;;;6.60;5.97;;;;;;;10.11;71.20;100453.38;5006509;28;20278;-65
2023/04/19 09:14:22;;;;;;;14.07;7.07;;;;;;;10.09;71.49;100460.25;5006692;28;20215;-62
2023/04/19 09:16:52;;;;;;;8.33;6.60;;;;;;;10.04;71.40;100464.53;5006386;28;20702;-60
2023/04/19 09:19:20;;;;;;;7.73;6.30;;;;;;;9.94;70.63;100468.00;5007943;28;20211;-59
2023/04/19 09:21:52;;;;;;;6.73;5.70;;;;;;;9.88;70.74;100468.03;5008408;28;20227;-61
2023/04/19 09:24:39;;;;;;;8.07;6.47;;;;;;;9.89;71.25;100467.16;5001161;28;20235;-61
2023/04/19 09:27:11;;;;;;;6.90;6.20;;;;;;;9.90;71.82;100466.28;5009696;28;20246;-60
2023/04/19 09:29:39;;;;;;;7.77;6.50;;;;;;;9.91;72.33;100470.59;5008211;28;20215;-60
2023/04/19 09:32:08;;;;;;;7.53;6.30;;;;;;;9.88;71.64;100471.47;5008877;28;20311;-59
2023/04/19 09:34:51;;;;;;;8.07;6.03;;;;;;;9.87;71.57;100471.47;5011417;28;20374;-61
2023/04/19 09:37:19;;;;;;;8.40;6.07;;;;;;;9.86;71.47;100478.31;5010066;28;20235;-60
2023/04/19 09:40:22;;;;;;;9.53;6.40;;;;;;;9.81;71.44;100474.91;5005893;28;20302;-61
2023/04/19 09:42:50;;;;;;;6.90;6.20;;;;;;;9.79;71.74;100471.47;5010879;28;20207;-61
2023/04/19 09:45:21;;;;;;;8.50;5.90;;;;;;;9.81;71.30;100469.75;5005566;28;20290;-60
2023/04/19 09:48:02;;;;;;;8.50;6.80;;;;;;;9.87;71.23;100471.47;5008649;28;20207;-60
2023/04/19 09:50:31;;;;;;;7.60;6.37;;;;;;;9.90;71.23;100471.44;5004401;28;20213;-61
2023/04/19 09:53:10;;;;;;;8.63;6.10;;;;;;;9.96;71.49;100476.59;5010380;28;20195;-60
2023/04/19 09:55:40;;;;;;;8.60;7.10;;;;;;;10.00;71.70;100464.56;5010282;28;20681;-62
2023/04/19 09:58:26;;;;;;;9.27;8.10;;;;;;;10.06;71.43;100477.44;5005619;28;20765;-60
2023/04/19 10:01:10;;;;;;;9.60;7.30;;;;;;;10.08;71.39;100476.53;5010613;28;20207;-60
2023/04/19 10:03:48;;;;;;;9.53;7.97;;;;;;;10.03;70.74;100470.56;5009945;28;20257;-62
2023/04/19 10:06:17;;;;;;;9.03;8.13;;;;;;;10.03;71.46;100472.28;5009646;28;20211;-61
2023/04/19 10:08:49;;;;;;;8.93;8.03;;;;;;;10.01;71.19;100474.84;5005346;28;20211;-65
2023/04/19 10:11:19;;;;;;;8.10;6.33;;;;;;;10.02;71.02;100480.88;5006853;28;20246;-60
2023/04/19 10:13:48;;;;;;;8.20;7.37;;;;;;;10.05;71.28;100481.72;5009249;28;20207;-63
2023/04/19 10:16:17;;;;;;;7.47;6.10;;;;;;;10.06;71.32;100477.44;5006893;28;20195;-61
2023/04/19 10:18:51;;;;;;;8.83;7.40;;;;;;;10.08;71.21;100461.09;5010843;28;20820;-62
2023/04/19 10:21:20;;;;;;;6.97;6.13;;;;;;;10.11;71.41;100468.81;5010084;28;20208;-60
2023/04/19 10:23:48;;;;;;;8.90;6.13;;;;;;;10.11;71.99;100475.69;5004155;28;20239;-61
2023/04/19 10:26:16;;;;;;;8.77;6.73;;;;;;;10.09;72.05;100467.97;5007759;28;20655;-62
2023/04/19 10:28:44;;;;;;;8.83;6.53;;;;;;;10.08;71.26;100468.81;5008826;28;20253;-61
2023/04/19 10:31:13;;;;;;;5.87;5.27;;;;;;;10.05;71.09;100475.69;5002139;28;20274;-59
2023/04/19 10:33:42;;;;;;;6.10;5.50;;;;;;;10.02;71.32;100476.59;5010744;28;20211;-62
2023/04/19 10:36:16;;;;;;;9.17;6.80;;;;;;;10.06;71.63;100480.00;5009049;28;20204;-62
2023/04/19 10:38:46;;;;;;;11.40;6.20;;;;;;;10.07;71.67;100481.72;5008684;28;20278;-63
2023/04/19 10:41:16;;;;;;;6.73;5.97;;;;;;;10.08;72.24;100481.69;5005290;28;20204;-61
2023/04/19 10:43:47;;;;;;;7.47;6.47;;;;;;;10.07;72.25;100489.44;5009177;28;20195;-60
2023/04/19 10:46:35;;;;;;;8.17;6.17;;;;;;;10.07;71.99;100480.00;5008928;28;20569;-64
2023/04/19 10:49:06;;;;;;;8.33;6.37;;;;;;;10.10;72.14;100481.72;5009820;28;20203;-61
2023/04/19 10:51:37;;;;;;;7.50;6.40;;;;;;;10.18;72.31;100486.84;5009139;28;20203;-60
2023/04/19 10:54:06;;;;;;;7.23;6.30;;;;;;;10.23;72.18;100479.94;5012348;28;20207;-60
2023/04/19 10:57:09;;;;;;;8.27;6.70;;;;;;;10.28;72.29;100478.25;5012518;28;20658;-61
2023/04/19 10:59:37;;;;;;;9.43;6.87;;;;;;;10.32;71.69;100475.66;4968221;28;20255;-59
2023/04/19 11:02:29;;;;;;;7.87;6.33;;;;;;;10.33;71.30;100479.94;4972401;28;20212;-61
2023/04/19 11:05:02;;;;;;;10.23;6.33;;;;;;;10.43;71.69;100482.50;4998449;28;20693;-60
2023/04/19 11:07:42;;;;;;;8.03;5.90;;;;;;;10.49;71.56;100478.16;5010514;28;22042;-62
2023/04/19 11:10:11;;;;;;;6.93;6.10;;;;;;;10.54;71.28;100486.75;5006407;28;20203;-61
2023/04/19 11:12:44;;;;;;;7.63;5.73;;;;;;;10.60;70.50;100486.72;5010737;28;20294;-59
2023/04/19 11:15:11;;;;;;;6.47;5.87;;;;;;;10.65;70.64;100484.13;5012713;28;20254;-59
2023/04/19 11:17:41;;;;;;;7.17;6.20;;;;;;;10.68;70.17;100488.38;5010992;28;20586;-60
2023/04/19 11:20:10;;;;;;;8.10;5.57;;;;;;;10.74;70.33;100485.78;5011644;28;20203;-63
2023/04/19 11:22:40;;;;;;;7.50;6.67;;;;;;;10.89;70.31;100475.38;5011893;28;20238;-64
2023/04/19 11:25:12;;;;;;;6.93;5.87;;;;;;;11.10;70.14;100477.81;5011548;28;20203;-59
2023/04/19 11:27:41;;;;;;;9.20;6.03;;;;;;;11.24;68.99;100474.31;5012659;28;20231;-61
2023/04/19 11:30:11;;;;;;;7.23;6.30;;;;;;;11.27;67.83;100474.28;5013279;28;20211;-61
2023/04/19 11:32:47;;;;;;;9.53;6.73;;;;;;;11.35;67.95;100483.66;5013122;28;20206;-63
2023/04/19 11:35:18;;;;;;;8.07;6.27;;;;;;;11.52;68.00;100475.78;5011907;28;20662;-61
2023/04/19 11:37:46;;;;;;;10.13;7.20;;;;;;;11.78;67.34;100478.16;5010684;28;20225;-61
2023/04/19 11:40:17;;;;;;;6.57;5.83;;;;;;;11.98;65.58;100470.22;5011446;28;20255;-61
2023/04/19 11:42:45;;;;;;;6.23;5.63;;;;;;;12.12;65.31;100476.97;5009935;28;20628;-60